sensor_id;sensor_type;location;lat;lon;timestamp;temperature;humidity
17170;DHT22;8700;48.222;16.342;2022-07-23T00:01:15;28.90;78.60
17170;DHT22;8700;48.222;16.342;2022-07-23T00:04:38;28.90;78.70
17170;DHT22;8700;48.222;16.342;2022-07-23T00:07:59;28.90;78.80
17170;DHT22;8700;48.222;16.342;2022-07-23T00:11:21;28.80;78.90
17170;DHT22;8700;48.222;16.342;2022-07-23T00:14:43;28.80;79.30
17170;DHT22;8700;48.222;16.342;2022-07-23T00:18:04;28.80;79.40
17170;DHT22;8700;48.222;16.342;2022-07-23T00:21:27;28.80;79.60
17170;DHT22;8700;48.222;16.342;2022-07-23T00:24:48;28.80;79.90
17170;DHT22;8700;48.222;16.342;2022-07-23T00:28:10;28.80;80.10
17170;DHT22;8700;48.222;16.342;2022-07-23T00:31:31;28.80;80.30
17170;DHT22;8700;48.222;16.342;2022-07-23T00:34:53;28.80;80.60
17170;DHT22;8700;48.222;16.342;2022-07-23T00:38:15;28.70;81.10
17170;DHT22;8700;48.222;16.342;2022-07-23T00:41:37;28.60;81.40
17170;DHT22;8700;48.222;16.342;2022-07-23T00:44:58;28.60;81.50
17170;DHT22;8700;48.222;16.342;2022-07-23T00:48:19;28.60;82.40
17170;DHT22;8700;48.222;16.342;2022-07-23T00:51:40;28.50;81.90
17170;DHT22;8700;48.222;16.342;2022-07-23T00:55:05;28.60;81.90
17170;DHT22;8700;48.222;16.342;2022-07-23T00:58:26;28.70;81.80
17170;DHT22;8700;48.222;16.342;2022-07-23T01:01:48;28.70;81.90
17170;DHT22;8700;48.222;16.342;2022-07-23T01:05:10;28.40;83.90
17170;DHT22;8700;48.222;16.342;2022-07-23T01:08:31;28.30;84.40
17170;DHT22;8700;48.222;16.342;2022-07-23T01:11:55;28.10;85.30
17170;DHT22;8700;48.222;16.342;2022-07-23T01:15:17;28.10;85.50
17170;DHT22;8700;48.222;16.342;2022-07-23T01:18:39;27.90;86.40
17170;DHT22;8700;48.222;16.342;2022-07-23T01:22:03;27.80;87.20
17170;DHT22;8700;48.222;16.342;2022-07-23T01:25:25;27.60;88.20
17170;DHT22;8700;48.222;16.342;2022-07-23T01:28:47;27.30;89.40
17170;DHT22;8700;48.222;16.342;2022-07-23T01:32:08;27.10;90.30
17170;DHT22;8700;48.222;16.342;2022-07-23T01:35:29;26.80;91.20
17170;DHT22;8700;48.222;16.342;2022-07-23T01:38:50;26.60;92.30
17170;DHT22;8700;48.222;16.342;2022-07-23T01:42:13;26.90;92.80
17170;DHT22;8700;48.222;16.342;2022-07-23T01:45:34;27.20;93.20
17170;DHT22;8700;48.222;16.342;2022-07-23T01:48:56;27.40;93.90
17170;DHT22;8700;48.222;16.342;2022-07-23T01:52:17;27.50;94.80
17170;DHT22;8700;48.222;16.342;2022-07-23T01:55:38;27.50;96.20
17170;DHT22;8700;48.222;16.342;2022-07-23T01:59:01;27.40;97.80
17170;DHT22;8700;48.222;16.342;2022-07-23T02:02:22;27.50;98.30
17170;DHT22;8700;48.222;16.342;2022-07-23T02:05:43;27.70;99.10
17170;DHT22;8700;48.222;16.342;2022-07-23T02:09:06;27.70;99.60
17170;DHT22;8700;48.222;16.342;2022-07-23T02:12:28;27.70;99.90
17170;DHT22;8700;48.222;16.342;2022-07-23T02:15:51;27.70;99.90
17170;DHT22;8700;48.222;16.342;2022-07-23T02:19:12;27.70;99.90
17170;DHT22;8700;48.222;16.342;2022-07-23T02:22:34;27.80;99.90
17170;DHT22;8700;48.222;16.342;2022-07-23T02:25:55;27.80;99.90
17170;DHT22;8700;48.222;16.342;2022-07-23T02:29:17;27.80;99.90
17170;DHT22;8700;48.222;16.342;2022-07-23T02:32:39;27.80;99.90
17170;DHT22;8700;48.222;16.342;2022-07-23T02:36:01;27.80;99.90
17170;DHT22;8700;48.222;16.342;2022-07-23T02:39:22;27.50;99.90
17170;DHT22;8700;48.222;16.342;2022-07-23T02:42:43;27.50;99.90
17170;DHT22;8700;48.222;16.342;2022-07-23T02:46:04;27.70;99.90
17170;DHT22;8700;48.222;16.342;2022-07-23T02:49:27;27.80;99.90
17170;DHT22;8700;48.222;16.342;2022-07-23T02:52:48;28.00;99.90
17170;DHT22;8700;48.222;16.342;2022-07-23T02:56:10;28.00;99.90
17170;DHT22;8700;48.222;16.342;2022-07-23T02:59:31;27.80;99.90
17170;DHT22;8700;48.222;16.342;2022-07-23T03:02:52;28.00;99.90
17170;DHT22;8700;48.222;16.342;2022-07-23T03:06:15;27.90;99.90
17170;DHT22;8700;48.222;16.342;2022-07-23T03:09:36;27.90;99.90
17170;DHT22;8700;48.222;16.342;2022-07-23T03:12:58;28.00;99.90
17170;DHT22;8700;48.222;16.342;2022-07-23T03:16:19;28.10;99.90
17170;DHT22;8700;48.222;16.342;2022-07-23T03:19:40;28.10;99.90
17170;DHT22;8700;48.222;16.342;2022-07-23T03:23:03;28.10;99.90
17170;DHT22;8700;48.222;16.342;2022-07-23T03:26:24;28.10;99.90
17170;DHT22;8700;48.222;16.342;2022-07-23T03:29:46;28.10;99.90
17170;DHT22;8700;48.222;16.342;2022-07-23T03:33:07;28.10;99.90
17170;DHT22;8700;48.222;16.342;2022-07-23T03:36:28;28.00;99.90
17170;DHT22;8700;48.222;16.342;2022-07-23T03:39:51;28.00;99.90
17170;DHT22;8700;48.222;16.342;2022-07-23T03:43:12;27.90;99.90
17170;DHT22;8700;48.222;16.342;2022-07-23T03:46:33;28.00;99.90
17170;DHT22;8700;48.222;16.342;2022-07-23T03:49:55;28.00;99.90
17170;DHT22;8700;48.222;16.342;2022-07-23T03:53:16;28.00;99.90
17170;DHT22;8700;48.222;16.342;2022-07-23T03:56:40;27.90;99.90
17170;DHT22;8700;48.222;16.342;2022-07-23T04:00:03;27.80;99.90
17170;DHT22;8700;48.222;16.342;2022-07-23T04:03:25;27.80;99.90
17170;DHT22;8700;48.222;16.342;2022-07-23T04:06:47;27.90;99.90
17170;DHT22;8700;48.222;16.342;2022-07-23T04:10:08;27.90;99.90
17170;DHT22;8700;48.222;16.342;2022-07-23T04:13:31;28.10;99.90
17170;DHT22;8700;48.222;16.342;2022-07-23T04:16:53;28.00;99.90
17170;DHT22;8700;48.222;16.342;2022-07-23T04:20:14;27.90;99.90
17170;DHT22;8700;48.222;16.342;2022-07-23T04:23:36;27.90;99.90
17170;DHT22;8700;48.222;16.342;2022-07-23T04:26:58;28.20;99.90
17170;DHT22;8700;48.222;16.342;2022-07-23T04:30:22;28.20;99.90
17170;DHT22;8700;48.222;16.342;2022-07-23T04:33:43;28.20;99.90
17170;DHT22;8700;48.222;16.342;2022-07-23T04:37:05;28.30;99.90
17170;DHT22;8700;48.222;16.342;2022-07-23T04:40:26;28.30;99.90
17170;DHT22;8700;48.222;16.342;2022-07-23T04:43:47;28.30;99.90
17170;DHT22;8700;48.222;16.342;2022-07-23T04:47:10;28.30;99.90
17170;DHT22;8700;48.222;16.342;2022-07-23T04:50:31;28.40;99.90
17170;DHT22;8700;48.222;16.342;2022-07-23T04:53:52;28.40;99.90
17170;DHT22;8700;48.222;16.342;2022-07-23T04:57:14;28.40;99.90
17170;DHT22;8700;48.222;16.342;2022-07-23T05:00:35;28.40;99.90
17170;DHT22;8700;48.222;16.342;2022-07-23T05:03:58;28.40;99.90
17170;DHT22;8700;48.222;16.342;2022-07-23T05:07:19;28.30;99.90
17170;DHT22;8700;48.222;16.342;2022-07-23T05:10:42;28.30;99.90
17170;DHT22;8700;48.222;16.342;2022-07-23T05:14:03;28.40;99.90
17170;DHT22;8700;48.222;16.342;2022-07-23T05:17:24;28.50;99.90
17170;DHT22;8700;48.222;16.342;2022-07-23T05:20:47;28.60;99.90
17170;DHT22;8700;48.222;16.342;2022-07-23T05:24:08;28.60;99.90
17170;DHT22;8700;48.222;16.342;2022-07-23T05:27:29;28.70;99.90
17170;DHT22;8700;48.222;16.342;2022-07-23T05:30:51;28.70;99.90
17170;DHT22;8700;48.222;16.342;2022-07-23T05:34:12;28.80;99.90
17170;DHT22;8700;48.222;16.342;2022-07-23T05:37:36;28.90;99.90
17170;DHT22;8700;48.222;16.342;2022-07-23T05:40:57;28.90;99.90
17170;DHT22;8700;48.222;16.342;2022-07-23T05:44:19;28.80;99.90
17170;DHT22;8700;48.222;16.342;2022-07-23T05:47:41;29.20;99.90
17170;DHT22;8700;48.222;16.342;2022-07-23T05:51:03;29.30;99.90
17170;DHT22;8700;48.222;16.342;2022-07-23T05:54:27;29.30;99.90
17170;DHT22;8700;48.222;16.342;2022-07-23T05:57:49;29.10;99.90
17170;DHT22;8700;48.222;16.342;2022-07-23T06:01:10;29.10;99.90
17170;DHT22;8700;48.222;16.342;2022-07-23T06:04:32;29.10;99.90
17170;DHT22;8700;48.222;16.342;2022-07-23T06:07:53;29.40;99.90
17170;DHT22;8700;48.222;16.342;2022-07-23T06:11:16;29.90;99.90
17170;DHT22;8700;48.222;16.342;2022-07-23T06:14:37;29.90;99.90
17170;DHT22;8700;48.222;16.342;2022-07-23T06:17:59;30.00;99.90
17170;DHT22;8700;48.222;16.342;2022-07-23T06:21:20;30.20;99.90
17170;DHT22;8700;48.222;16.342;2022-07-23T06:24:41;29.90;99.90
17170;DHT22;8700;48.222;16.342;2022-07-23T06:28:04;29.80;99.90
17170;DHT22;8700;48.222;16.342;2022-07-23T06:31:26;29.80;99.90
17170;DHT22;8700;48.222;16.342;2022-07-23T06:34:47;29.60;99.90
17170;DHT22;8700;48.222;16.342;2022-07-23T06:38:08;29.40;99.90
17170;DHT22;8700;48.222;16.342;2022-07-23T06:41:30;29.40;99.90
17170;DHT22;8700;48.222;16.342;2022-07-23T06:44:52;29.20;99.90
17170;DHT22;8700;48.222;16.342;2022-07-23T06:48:14;29.30;99.90
17170;DHT22;8700;48.222;16.342;2022-07-23T06:51:35;29.40;99.90
17170;DHT22;8700;48.222;16.342;2022-07-23T06:54:57;29.50;99.90
17170;DHT22;8700;48.222;16.342;2022-07-23T06:58:18;29.70;99.90
17170;DHT22;8700;48.222;16.342;2022-07-23T07:01:41;30.20;99.90
17170;DHT22;8700;48.222;16.342;2022-07-23T07:05:03;30.30;99.70
17170;DHT22;8700;48.222;16.342;2022-07-23T07:08:24;30.40;99.20
17170;DHT22;8700;48.222;16.342;2022-07-23T07:11:46;30.50;98.60
17170;DHT22;8700;48.222;16.342;2022-07-23T07:15:07;30.60;97.90
17170;DHT22;8700;48.222;16.342;2022-07-23T07:18:31;30.90;96.80
17170;DHT22;8700;48.222;16.342;2022-07-23T07:21:52;30.80;96.40
17170;DHT22;8700;48.222;16.342;2022-07-23T07:25:13;30.80;96.40
17170;DHT22;8700;48.222;16.342;2022-07-23T07:28:34;30.90;95.60
17170;DHT22;8700;48.222;16.342;2022-07-23T07:31:56;31.00;95.50
17170;DHT22;8700;48.222;16.342;2022-07-23T07:35:18;30.90;95.70
17170;DHT22;8700;48.222;16.342;2022-07-23T07:38:40;30.90;95.20
17170;DHT22;8700;48.222;16.342;2022-07-23T07:42:01;31.00;94.90
17170;DHT22;8700;48.222;16.342;2022-07-23T07:45:24;31.00;94.50
17170;DHT22;8700;48.222;16.342;2022-07-23T07:48:45;31.70;94.00
17170;DHT22;8700;48.222;16.342;2022-07-23T07:52:08;32.40;93.40
17170;DHT22;8700;48.222;16.342;2022-07-23T07:55:29;33.80;91.30
17170;DHT22;8700;48.222;16.342;2022-07-23T07:58:51;34.70;90.00
17170;DHT22;8700;48.222;16.342;2022-07-23T08:02:12;36.00;85.50
17170;DHT22;8700;48.222;16.342;2022-07-23T08:05:33;36.60;81.90
17170;DHT22;8700;48.222;16.342;2022-07-23T08:08:56;37.00;78.70
17170;DHT22;8700;48.222;16.342;2022-07-23T08:12:17;36.70;77.50
17170;DHT22;8700;48.222;16.342;2022-07-23T08:15:38;35.90;78.10
17170;DHT22;8700;48.222;16.342;2022-07-23T08:19:00;34.50;79.70
17170;DHT22;8700;48.222;16.342;2022-07-23T08:22:21;34.70;81.50
17170;DHT22;8700;48.222;16.342;2022-07-23T08:25:44;35.50;78.70
17170;DHT22;8700;48.222;16.342;2022-07-23T08:29:05;35.70;77.00
17170;DHT22;8700;48.222;16.342;2022-07-23T08:32:26;36.40;75.00
17170;DHT22;8700;48.222;16.342;2022-07-23T08:35:49;36.80;73.30
17170;DHT22;8700;48.222;16.342;2022-07-23T08:39:11;36.70;73.10
17170;DHT22;8700;48.222;16.342;2022-07-23T08:42:33;37.40;71.20
17170;DHT22;8700;48.222;16.342;2022-07-23T08:45:58;38.40;69.70
17170;DHT22;8700;48.222;16.342;2022-07-23T08:49:19;39.00;66.90
17170;DHT22;8700;48.222;16.342;2022-07-23T08:52:41;39.60;65.60
17170;DHT22;8700;48.222;16.342;2022-07-23T08:56:04;38.90;64.80
17170;DHT22;8700;48.222;16.342;2022-07-23T08:59:28;39.30;64.30
17170;DHT22;8700;48.222;16.342;2022-07-23T09:02:50;39.10;63.50
17170;DHT22;8700;48.222;16.342;2022-07-23T09:06:12;39.40;63.10
17170;DHT22;8700;48.222;16.342;2022-07-23T09:09:33;37.20;64.80
17170;DHT22;8700;48.222;16.342;2022-07-23T09:12:54;36.20;67.10
17170;DHT22;8700;48.222;16.342;2022-07-23T09:16:19;37.40;66.10
17170;DHT22;8700;48.222;16.342;2022-07-23T09:19:41;38.10;65.30
17170;DHT22;8700;48.222;16.342;2022-07-23T09:23:02;39.50;63.40
17170;DHT22;8700;48.222;16.342;2022-07-23T09:26:27;40.20;62.40
17170;DHT22;8700;48.222;16.342;2022-07-23T09:29:56;40.20;61.10
17170;DHT22;8700;48.222;16.342;2022-07-23T09:33:19;40.00;60.80
17170;DHT22;8700;48.222;16.342;2022-07-23T09:36:42;38.90;61.80
17170;DHT22;8700;48.222;16.342;2022-07-23T09:40:05;40.00;60.00
17170;DHT22;8700;48.222;16.342;2022-07-23T09:43:27;39.80;59.90
17170;DHT22;8700;48.222;16.342;2022-07-23T09:46:50;39.40;60.40
17170;DHT22;8700;48.222;16.342;2022-07-23T09:50:13;39.60;60.40
17170;DHT22;8700;48.222;16.342;2022-07-23T09:53:35;39.70;60.30
17170;DHT22;8700;48.222;16.342;2022-07-23T09:56:58;39.30;61.00
17170;DHT22;8700;48.222;16.342;2022-07-23T10:00:20;39.80;60.50
17170;DHT22;8700;48.222;16.342;2022-07-23T10:03:41;40.60;59.60
17170;DHT22;8700;48.222;16.342;2022-07-23T10:07:07;39.80;59.80
17170;DHT22;8700;48.222;16.342;2022-07-23T10:10:30;39.60;59.90
17170;DHT22;8700;48.222;16.342;2022-07-23T10:13:54;39.70;59.80
17170;DHT22;8700;48.222;16.342;2022-07-23T10:17:18;39.80;60.10
17170;DHT22;8700;48.222;16.342;2022-07-23T10:20:40;39.60;60.40
17170;DHT22;8700;48.222;16.342;2022-07-23T10:24:18;40.70;59.70
17170;DHT22;8700;48.222;16.342;2022-07-23T10:28:05;42.10;58.00
17170;DHT22;8700;48.222;16.342;2022-07-23T10:31:35;42.40;57.10
17170;DHT22;8700;48.222;16.342;2022-07-23T10:35:09;42.20;57.00
17170;DHT22;8700;48.222;16.342;2022-07-23T10:38:37;41.20;58.10
17170;DHT22;8700;48.222;16.342;2022-07-23T10:42:10;41.50;57.50
17170;DHT22;8700;48.222;16.342;2022-07-23T10:45:33;41.20;57.30
17170;DHT22;8700;48.222;16.342;2022-07-23T10:49:25;41.40;57.40
17170;DHT22;8700;48.222;16.342;2022-07-23T10:53:16;41.90;57.00
17170;DHT22;8700;48.222;16.342;2022-07-23T10:57:04;42.50;56.30
17170;DHT22;8700;48.222;16.342;2022-07-23T11:00:38;41.70;56.70
17170;DHT22;8700;48.222;16.342;2022-07-23T11:04:00;40.30;58.00
17170;DHT22;8700;48.222;16.342;2022-07-23T11:07:21;39.40;58.60
17170;DHT22;8700;48.222;16.342;2022-07-23T11:10:45;38.20;59.80
17170;DHT22;8700;48.222;16.342;2022-07-23T11:14:06;37.50;60.80
17170;DHT22;8700;48.222;16.342;2022-07-23T11:17:30;37.90;61.00
17170;DHT22;8700;48.222;16.342;2022-07-23T11:20:51;37.30;62.10
17170;DHT22;8700;48.222;16.342;2022-07-23T11:24:15;38.70;61.00
17170;DHT22;8700;48.222;16.342;2022-07-23T11:27:37;39.70;59.50
17170;DHT22;8700;48.222;16.342;2022-07-23T11:30:59;39.20;60.00
17170;DHT22;8700;48.222;16.342;2022-07-23T11:34:42;39.20;60.00
17170;DHT22;8700;48.222;16.342;2022-07-23T11:38:05;39.30;59.90
17170;DHT22;8700;48.222;16.342;2022-07-23T11:41:27;40.10;59.20
17170;DHT22;8700;48.222;16.342;2022-07-23T11:44:48;39.40;59.60
17170;DHT22;8700;48.222;16.342;2022-07-23T11:48:16;38.40;61.00
17170;DHT22;8700;48.222;16.342;2022-07-23T11:51:39;38.70;60.80
17170;DHT22;8700;48.222;16.342;2022-07-23T11:55:02;38.10;61.80
17170;DHT22;8700;48.222;16.342;2022-07-23T11:58:24;38.10;62.30
17170;DHT22;8700;48.222;16.342;2022-07-23T12:01:56;38.20;62.00
17170;DHT22;8700;48.222;16.342;2022-07-23T12:05:19;38.30;62.00
17170;DHT22;8700;48.222;16.342;2022-07-23T12:08:43;37.70;62.70
17170;DHT22;8700;48.222;16.342;2022-07-23T12:12:05;37.00;63.30
17170;DHT22;8700;48.222;16.342;2022-07-23T12:15:28;37.00;62.90
17170;DHT22;8700;48.222;16.342;2022-07-23T12:18:51;36.90;62.80
17170;DHT22;8700;48.222;16.342;2022-07-23T12:22:12;36.90;62.80
17170;DHT22;8700;48.222;16.342;2022-07-23T12:25:40;36.90;62.60
17170;DHT22;8700;48.222;16.342;2022-07-23T12:29:01;36.70;62.90
17170;DHT22;8700;48.222;16.342;2022-07-23T12:32:25;36.60;62.90
17170;DHT22;8700;48.222;16.342;2022-07-23T12:35:47;36.20;63.70
17170;DHT22;8700;48.222;16.342;2022-07-23T12:39:09;36.60;62.80
17170;DHT22;8700;48.222;16.342;2022-07-23T12:42:41;36.00;63.50
17170;DHT22;8700;48.222;16.342;2022-07-23T12:46:04;36.00;63.10
17170;DHT22;8700;48.222;16.342;2022-07-23T12:49:26;35.00;65.00
17170;DHT22;8700;48.222;16.342;2022-07-23T12:52:48;35.00;64.90
17170;DHT22;8700;48.222;16.342;2022-07-23T12:56:11;34.90;64.80
17170;DHT22;8700;48.222;16.342;2022-07-23T12:59:33;34.70;64.90
17170;DHT22;8700;48.222;16.342;2022-07-23T13:02:55;34.50;64.70
17170;DHT22;8700;48.222;16.342;2022-07-23T13:06:16;34.10;64.60
17170;DHT22;8700;48.222;16.342;2022-07-23T13:09:37;33.70;63.70
17170;DHT22;8700;48.222;16.342;2022-07-23T13:12:59;33.30;62.60
17170;DHT22;8700;48.222;16.342;2022-07-23T13:16:22;33.70;61.90
17170;DHT22;8700;48.222;16.342;2022-07-23T13:19:43;33.30;61.60
17170;DHT22;8700;48.222;16.342;2022-07-23T13:23:05;33.50;61.20
17170;DHT22;8700;48.222;16.342;2022-07-23T13:26:27;33.60;61.30
17170;DHT22;8700;48.222;16.342;2022-07-23T13:29:48;33.60;61.00
17170;DHT22;8700;48.222;16.342;2022-07-23T13:33:11;34.20;60.40
17170;DHT22;8700;48.222;16.342;2022-07-23T13:36:32;34.90;59.70
17170;DHT22;8700;48.222;16.342;2022-07-23T13:39:54;35.30;59.10
17170;DHT22;8700;48.222;16.342;2022-07-23T13:43:17;35.60;58.40
17170;DHT22;8700;48.222;16.342;2022-07-23T13:46:38;35.70;58.40
17170;DHT22;8700;48.222;16.342;2022-07-23T13:50:01;34.60;59.20
17170;DHT22;8700;48.222;16.342;2022-07-23T13:53:23;34.30;59.50
17170;DHT22;8700;48.222;16.342;2022-07-23T13:56:44;34.00;60.00
17170;DHT22;8700;48.222;16.342;2022-07-23T14:00:07;33.90;60.20
17170;DHT22;8700;48.222;16.342;2022-07-23T14:03:30;34.30;60.00
17170;DHT22;8700;48.222;16.342;2022-07-23T14:06:55;34.40;59.60
17170;DHT22;8700;48.222;16.342;2022-07-23T14:10:17;34.70;59.40
17170;DHT22;8700;48.222;16.342;2022-07-23T14:13:39;35.10;59.10
17170;DHT22;8700;48.222;16.342;2022-07-23T14:17:01;35.10;57.80
17170;DHT22;8700;48.222;16.342;2022-07-23T14:20:22;34.90;57.90
17170;DHT22;8700;48.222;16.342;2022-07-23T14:23:45;34.90;56.30
17170;DHT22;8700;48.222;16.342;2022-07-23T14:27:06;35.10;54.80
17170;DHT22;8700;48.222;16.342;2022-07-23T14:30:28;34.90;55.00
17170;DHT22;8700;48.222;16.342;2022-07-23T14:33:50;34.50;55.20
17170;DHT22;8700;48.222;16.342;2022-07-23T14:37:11;35.00;55.20
17170;DHT22;8700;48.222;16.342;2022-07-23T14:40:34;35.40;55.30
17170;DHT22;8700;48.222;16.342;2022-07-23T14:43:55;35.60;55.40
17170;DHT22;8700;48.222;16.342;2022-07-23T14:47:17;35.70;55.60
17170;DHT22;8700;48.222;16.342;2022-07-23T14:50:38;35.70;55.10
17170;DHT22;8700;48.222;16.342;2022-07-23T14:53:59;36.10;55.30
17170;DHT22;8700;48.222;16.342;2022-07-23T14:57:22;36.20;55.20
17170;DHT22;8700;48.222;16.342;2022-07-23T15:00:43;36.20;55.40
17170;DHT22;8700;48.222;16.342;2022-07-23T15:04:05;36.00;55.90
17170;DHT22;8700;48.222;16.342;2022-07-23T15:07:27;36.00;55.90
17170;DHT22;8700;48.222;16.342;2022-07-23T15:10:48;36.00;55.90
17170;DHT22;8700;48.222;16.342;2022-07-23T15:14:12;35.60;56.20
17170;DHT22;8700;48.222;16.342;2022-07-23T15:17:33;35.60;56.50
17170;DHT22;8700;48.222;16.342;2022-07-23T15:20:55;35.40;56.90
17170;DHT22;8700;48.222;16.342;2022-07-23T15:24:17;35.40;56.90
17170;DHT22;8700;48.222;16.342;2022-07-23T15:27:38;35.40;57.30
17170;DHT22;8700;48.222;16.342;2022-07-23T15:31:01;35.30;57.50
17170;DHT22;8700;48.222;16.342;2022-07-23T15:34:23;35.20;58.30
17170;DHT22;8700;48.222;16.342;2022-07-23T15:37:45;35.40;58.30
17170;DHT22;8700;48.222;16.342;2022-07-23T15:41:07;35.30;58.70
17170;DHT22;8700;48.222;16.342;2022-07-23T15:44:30;35.10;59.20
17170;DHT22;8700;48.222;16.342;2022-07-23T15:47:54;35.00;59.20
17170;DHT22;8700;48.222;16.342;2022-07-23T15:51:16;34.80;59.60
17170;DHT22;8700;48.222;16.342;2022-07-23T15:54:39;35.00;59.50
17170;DHT22;8700;48.222;16.342;2022-07-23T15:58:00;35.00;59.40
17170;DHT22;8700;48.222;16.342;2022-07-23T16:01:22;34.70;60.00
17170;DHT22;8700;48.222;16.342;2022-07-23T16:04:45;34.10;60.90
17170;DHT22;8700;48.222;16.342;2022-07-23T16:08:07;33.90;61.30
17170;DHT22;8700;48.222;16.342;2022-07-23T16:11:29;33.70;61.90
17170;DHT22;8700;48.222;16.342;2022-07-23T16:14:51;33.50;62.40
17170;DHT22;8700;48.222;16.342;2022-07-23T16:18:13;33.60;62.40
17170;DHT22;8700;48.222;16.342;2022-07-23T16:21:36;33.70;62.70
17170;DHT22;8700;48.222;16.342;2022-07-23T16:24:57;33.60;63.00
17170;DHT22;8700;48.222;16.342;2022-07-23T16:28:18;33.60;63.10
17170;DHT22;8700;48.222;16.342;2022-07-23T16:31:41;33.60;63.20
17170;DHT22;8700;48.222;16.342;2022-07-23T16:35:03;33.60;63.30
17170;DHT22;8700;48.222;16.342;2022-07-23T16:38:26;33.50;63.00
17170;DHT22;8700;48.222;16.342;2022-07-23T16:41:48;33.80;62.40
17170;DHT22;8700;48.222;16.342;2022-07-23T16:45:10;33.90;61.30
17170;DHT22;8700;48.222;16.342;2022-07-23T16:48:32;33.40;61.50
17170;DHT22;8700;48.222;16.342;2022-07-23T16:51:54;33.50;61.50
17170;DHT22;8700;48.222;16.342;2022-07-23T16:55:17;33.40;61.20
17170;DHT22;8700;48.222;16.342;2022-07-23T16:58:38;33.40;61.50
17170;DHT22;8700;48.222;16.342;2022-07-23T17:02:01;33.30;61.70
17170;DHT22;8700;48.222;16.342;2022-07-23T17:05:23;33.00;62.40
17170;DHT22;8700;48.222;16.342;2022-07-23T17:08:46;33.10;62.40
17170;DHT22;8700;48.222;16.342;2022-07-23T17:12:09;32.80;62.90
17170;DHT22;8700;48.222;16.342;2022-07-23T17:15:31;32.90;62.90
17170;DHT22;8700;48.222;16.342;2022-07-23T17:18:55;32.90;63.20
17170;DHT22;8700;48.222;16.342;2022-07-23T17:22:17;32.90;63.40
17170;DHT22;8700;48.222;16.342;2022-07-23T17:25:38;32.90;63.50
17170;DHT22;8700;48.222;16.342;2022-07-23T17:29:02;32.70;64.20
17170;DHT22;8700;48.222;16.342;2022-07-23T17:32:23;32.70;64.40
17170;DHT22;8700;48.222;16.342;2022-07-23T17:35:45;32.60;64.60
17170;DHT22;8700;48.222;16.342;2022-07-23T17:39:07;32.50;65.00
17170;DHT22;8700;48.222;16.342;2022-07-23T17:42:28;32.40;65.40
17170;DHT22;8700;48.222;16.342;2022-07-23T17:45:51;32.10;65.90
17170;DHT22;8700;48.222;16.342;2022-07-23T17:49:13;32.10;66.20
17170;DHT22;8700;48.222;16.342;2022-07-23T17:52:43;32.10;66.30
17170;DHT22;8700;48.222;16.342;2022-07-23T17:56:05;32.00;66.70
17170;DHT22;8700;48.222;16.342;2022-07-23T17:59:26;31.80;67.30
17170;DHT22;8700;48.222;16.342;2022-07-23T18:02:49;31.80;67.40
17170;DHT22;8700;48.222;16.342;2022-07-23T18:06:10;31.90;67.30
17170;DHT22;8700;48.222;16.342;2022-07-23T18:09:33;31.80;68.10
17170;DHT22;8700;48.222;16.342;2022-07-23T18:12:54;31.70;68.40
17170;DHT22;8700;48.222;16.342;2022-07-23T18:16:16;31.70;68.10
17170;DHT22;8700;48.222;16.342;2022-07-23T18:19:39;31.60;68.40
17170;DHT22;8700;48.222;16.342;2022-07-23T18:23:01;31.60;68.80
17170;DHT22;8700;48.222;16.342;2022-07-23T18:26:22;31.50;69.00
17170;DHT22;8700;48.222;16.342;2022-07-23T18:29:43;31.50;69.10
17170;DHT22;8700;48.222;16.342;2022-07-23T18:33:05;31.40;69.40
17170;DHT22;8700;48.222;16.342;2022-07-23T18:36:27;31.40;69.60
17170;DHT22;8700;48.222;16.342;2022-07-23T18:39:49;31.30;70.00
17170;DHT22;8700;48.222;16.342;2022-07-23T18:43:10;31.30;70.10
17170;DHT22;8700;48.222;16.342;2022-07-23T18:46:33;31.30;70.00
17170;DHT22;8700;48.222;16.342;2022-07-23T18:49:54;31.20;70.30
17170;DHT22;8700;48.222;16.342;2022-07-23T18:53:17;31.20;70.10
17170;DHT22;8700;48.222;16.342;2022-07-23T18:56:39;31.20;70.30
17170;DHT22;8700;48.222;16.342;2022-07-23T19:00:00;31.20;70.40
17170;DHT22;8700;48.222;16.342;2022-07-23T19:03:22;31.10;70.70
17170;DHT22;8700;48.222;16.342;2022-07-23T19:06:43;31.10;70.80
17170;DHT22;8700;48.222;16.342;2022-07-23T19:10:07;31.20;70.90
17170;DHT22;8700;48.222;16.342;2022-07-23T19:13:28;31.20;71.00
17170;DHT22;8700;48.222;16.342;2022-07-23T19:16:50;31.20;71.20
17170;DHT22;8700;48.222;16.342;2022-07-23T19:20:11;31.20;71.30
17170;DHT22;8700;48.222;16.342;2022-07-23T19:23:33;31.00;72.10
17170;DHT22;8700;48.222;16.342;2022-07-23T19:26:55;31.00;72.30
17170;DHT22;8700;48.222;16.342;2022-07-23T19:30:17;31.00;72.60
17170;DHT22;8700;48.222;16.342;2022-07-23T19:33:38;30.70;73.30
17170;DHT22;8700;48.222;16.342;2022-07-23T19:37:00;30.80;73.60
17170;DHT22;8700;48.222;16.342;2022-07-23T19:40:22;30.80;74.00
17170;DHT22;8700;48.222;16.342;2022-07-23T19:43:45;30.60;74.20
17170;DHT22;8700;48.222;16.342;2022-07-23T19:47:06;30.40;74.80
17170;DHT22;8700;48.222;16.342;2022-07-23T19:50:27;30.30;75.10
17170;DHT22;8700;48.222;16.342;2022-07-23T19:53:49;30.20;75.30
17170;DHT22;8700;48.222;16.342;2022-07-23T19:57:10;30.20;75.20
17170;DHT22;8700;48.222;16.342;2022-07-23T20:00:33;30.10;75.40
17170;DHT22;8700;48.222;16.342;2022-07-23T20:03:54;30.00;75.50
17170;DHT22;8700;48.222;16.342;2022-07-23T20:07:15;30.00;75.50
17170;DHT22;8700;48.222;16.342;2022-07-23T20:10:37;29.80;74.90
17170;DHT22;8700;48.222;16.342;2022-07-23T20:13:59;29.80;74.60
17170;DHT22;8700;48.222;16.342;2022-07-23T20:17:23;29.80;74.30
17170;DHT22;8700;48.222;16.342;2022-07-23T20:20:44;29.60;74.70
17170;DHT22;8700;48.222;16.342;2022-07-23T20:24:06;29.40;75.20
17170;DHT22;8700;48.222;16.342;2022-07-23T20:27:27;29.20;74.90
17170;DHT22;8700;48.222;16.342;2022-07-23T20:30:49;29.30;74.80
17170;DHT22;8700;48.222;16.342;2022-07-23T20:34:12;29.40;74.40
17170;DHT22;8700;48.222;16.342;2022-07-23T20:37:33;29.40;74.60
17170;DHT22;8700;48.222;16.342;2022-07-23T20:40:54;29.10;75.00
17170;DHT22;8700;48.222;16.342;2022-07-23T20:44:16;29.10;75.10
17170;DHT22;8700;48.222;16.342;2022-07-23T20:47:37;29.00;75.40
17170;DHT22;8700;48.222;16.342;2022-07-23T20:51:00;28.80;76.20
17170;DHT22;8700;48.222;16.342;2022-07-23T20:54:22;28.70;76.80
17170;DHT22;8700;48.222;16.342;2022-07-23T20:57:43;28.70;76.80
17170;DHT22;8700;48.222;16.342;2022-07-23T21:01:04;28.60;77.30
17170;DHT22;8700;48.222;16.342;2022-07-23T21:04:26;28.60;77.50
17170;DHT22;8700;48.222;16.342;2022-07-23T21:07:48;28.50;77.90
17170;DHT22;8700;48.222;16.342;2022-07-23T21:11:10;28.50;77.90
17170;DHT22;8700;48.222;16.342;2022-07-23T21:14:31;28.50;78.30
17170;DHT22;8700;48.222;16.342;2022-07-23T21:17:53;28.30;78.80